Time;durP1;ratioP1;P1;durP2;ratioP2;P2;SDS_P1;SDS_P2;PMS_P1;PMS_P2;Temp;Humidity;BMP_temperature;BMP_pressure;BME280_temperature;BME280_humidity;BME280_pressure;Samples;Min_cycle;Max_cycle;Signal;HPM_P1;HPM_P2
2023/12/20 00:01:27;;;;;;;0.00;0.00;;;10.20;78.90;;;;;;4783498;29;20279;-22
2023/12/20 00:03:54;;;;;;;0.00;0.00;;;10.10;78.90;;;;;;4785743;29;20336;-23
2023/12/20 00:06:23;;;;;;;0.00;0.00;;;10.10;78.80;;;;;;4786729;29;20206;-22
2023/12/20 00:08:51;;;;;;;0.00;0.00;;;10.10;78.80;;;;;;4790454;29;20217;-23
2023/12/20 00:11:18;;;;;;;0.00;0.00;;;10.00;78.80;;;;;;4794212;29;20232;-22
2023/12/20 00:13:48;;;;;;;0.00;0.00;;;10.00;78.80;;;;;;4800300;29;20228;-22
2023/12/20 00:16:20;;;;;;;0.00;0.00;;;10.00;78.80;;;;;;4792931;29;20213;-23
2023/12/20 00:18:47;;;;;;;0.00;0.00;;;9.90;79.60;;;;;;4800347;29;20304;-22
2023/12/20 00:21:17;;;;;;;0.00;0.00;;;9.90;78.90;;;;;;4794584;29;20743;-22
2023/12/20 00:23:44;;;;;;;0.00;0.00;;;9.90;78.90;;;;;;4794702;29;20216;-22
2023/12/20 00:26:12;;;;;;;0.00;0.00;;;9.90;78.80;;;;;;4782552;29;20221;-22
2023/12/20 00:28:42;;;;;;;0.00;0.00;;;9.80;78.70;;;;;;4786942;29;20668;-22
2023/12/20 00:31:09;;;;;;;0.00;0.00;;;9.80;78.80;;;;;;4797994;29;20687;-22
2023/12/20 00:33:37;;;;;;;0.00;0.00;;;9.80;78.80;;;;;;4783881;29;20699;-22
2023/12/20 00:36:09;;;;;;;0.00;0.00;;;9.80;78.80;;;;;;4782017;30;20253;-22
2023/12/20 00:38:37;;;;;;;0.00;0.00;;;9.70;78.80;;;;;;4794104;29;20584;-22
2023/12/20 00:41:04;;;;;;;0.00;0.00;;;9.70;78.80;;;;;;4783549;29;20216;-22
2023/12/20 00:43:34;;;;;;;0.00;0.00;;;9.70;78.80;;;;;;4799288;29;20233;-22
2023/12/20 00:46:01;;;;;;;0.00;0.00;;;9.60;79.40;;;;;;4799066;29;20319;-22
2023/12/20 00:48:30;;;;;;;0.00;0.00;;;9.60;78.70;;;;;;4798089;29;20213;-21
2023/12/20 00:51:00;;;;;;;0.00;0.00;;;9.60;78.80;;;;;;4797715;29;20296;-22
2023/12/20 00:53:27;;;;;;;0.00;0.00;;;9.60;78.80;;;;;;4788146;29;20237;-22
2023/12/20 00:55:54;;;;;;;0.00;0.00;;;9.60;78.80;;;;;;4796348;29;20209;-22
2023/12/20 00:58:24;;;;;;;0.00;0.00;;;9.50;78.90;;;;;;4786136;29;20658;-22
2023/12/20 01:00:51;;;;;;;0.00;0.00;;;9.50;78.90;;;;;;4793640;29;20533;-22
2023/12/20 01:03:23;;;;;;;0.00;0.00;;;9.50;78.90;;;;;;4809587;29;20236;-22
2023/12/20 01:05:50;;;;;;;0.00;0.00;;;9.50;78.80;;;;;;4795653;29;20283;-22
2023/12/20 01:08:20;;;;;;;0.00;0.00;;;9.50;78.90;;;;;;4786353;29;20231;-22
2023/12/20 01:10:47;;;;;;;0.00;0.00;;;9.50;78.90;;;;;;4797888;29;20205;-22
2023/12/20 01:13:15;;;;;;;0.00;0.00;;;9.50;78.80;;;;;;4791306;29;20235;-22
2023/12/20 01:15:44;;;;;;;0.00;0.00;;;9.40;78.70;;;;;;4793494;29;20213;-22
2023/12/20 01:18:16;;;;;;;0.00;0.00;;;9.40;78.70;;;;;;4785688;29;20205;-22
2023/12/20 01:20:48;;;;;;;0.00;0.00;;;9.40;78.80;;;;;;4792787;29;20688;-22
2023/12/20 01:23:20;;;;;;;0.00;0.00;;;9.40;78.80;;;;;;4790155;29;20218;-21
2023/12/20 01:25:48;;;;;;;0.00;0.00;;;9.40;78.90;;;;;;4790625;29;20204;-22
2023/12/20 01:28:15;;;;;;;0.00;0.00;;;9.40;78.90;;;;;;4794820;29;20762;-22
2023/12/20 01:30:48;;;;;;;0.00;0.00;;;9.30;78.80;;;;;;4800352;29;20224;-22
2023/12/20 01:33:17;;;;;;;0.00;0.00;;;9.30;78.80;;;;;;4798353;29;20384;-22
2023/12/20 01:35:44;;;;;;;0.00;0.00;;;9.30;78.80;;;;;;4786479;29;20210;-22
2023/12/20 01:38:13;;;;;;;0.00;0.00;;;9.30;78.80;;;;;;4789268;29;20209;-22
2023/12/20 01:40:41;;;;;;;0.00;0.00;;;9.30;78.80;;;;;;4784824;29;20215;-21
2023/12/20 01:43:12;;;;;;;0.00;0.00;;;9.20;78.80;;;;;;4784356;29;20222;-22
2023/12/20 01:45:41;;;;;;;0.00;0.00;;;9.20;78.90;;;;;;4796505;29;20225;-21
2023/12/20 01:48:10;;;;;;;0.00;0.00;;;9.20;78.90;;;;;;4787288;29;20235;-22
2023/12/20 01:50:40;;;;;;;0.00;0.00;;;9.20;78.80;;;;;;4793046;29;20270;-22
2023/12/20 01:53:12;;;;;;;0.00;0.00;;;9.20;78.80;;;;;;4800495;29;20719;-21
2023/12/20 01:55:42;;;;;;;0.00;0.00;;;9.20;78.80;;;;;;4802201;29;20221;-22
2023/12/20 01:58:11;;;;;;;0.00;0.00;;;9.20;78.70;;;;;;4792646;29;20231;-22
2023/12/20 02:00:38;;;;;;;0.00;0.00;;;9.20;78.70;;;;;;4800464;29;20213;-22
2023/12/20 02:03:08;;;;;;;0.00;0.00;;;9.10;78.60;;;;;;4796585;29;20618;-22
2023/12/20 02:05:37;;;;;;;0.00;0.00;;;9.10;78.60;;;;;;4802235;29;20232;-22
2023/12/20 02:08:05;;;;;;;0.00;0.00;;;9.10;78.70;;;;;;4802380;29;20217;-22
2023/12/20 02:10:35;;;;;;;0.00;0.00;;;9.10;78.80;;;;;;4803683;29;20205;-21
2023/12/20 02:13:07;;;;;;;0.00;0.00;;;9.10;78.90;;;;;;4791737;29;20236;-22
2023/12/20 02:15:42;;;;;;;0.00;0.00;;;9.00;78.90;;;;;;4799275;29;20296;-21
2023/12/20 02:18:15;;;;;;;0.00;0.00;;;9.00;78.80;;;;;;4786085;29;20217;-22
2023/12/20 02:20:44;;;;;;;0.00;0.00;;;9.00;78.90;;;;;;4802966;29;20232;-21
2023/12/20 02:23:11;;;;;;;0.00;0.00;;;9.00;78.80;;;;;;4791801;29;20214;-31
2023/12/20 02:25:41;;;;;;;0.00;0.00;;;9.00;78.90;;;;;;4802639;29;20327;-22
2023/12/20 02:28:10;;;;;;;0.00;0.00;;;9.00;78.90;;;;;;4793024;29;20830;-22
2023/12/20 02:30:40;;;;;;;0.00;0.00;;;9.00;78.90;;;;;;4785557;29;20919;-22
2023/12/20 02:33:12;;;;;;;0.00;0.00;;;9.00;78.90;;;;;;4798333;29;20244;-23
2023/12/20 02:35:42;;;;;;;0.00;0.00;;;9.00;78.90;;;;;;4802092;29;20687;-22
2023/12/20 02:38:11;;;;;;;0.00;0.00;;;9.00;78.90;;;;;;4800120;29;20209;-22
2023/12/20 02:40:40;;;;;;;0.00;0.00;;;9.00;78.80;;;;;;4801435;29;20213;-22
2023/12/20 02:43:15;;;;;;;0.00;0.00;;;9.00;78.80;;;;;;4791894;29;20579;-21
2023/12/20 02:45:45;;;;;;;0.00;0.00;;;8.90;78.80;;;;;;4799433;29;20217;-22
2023/12/20 02:48:17;;;;;;;0.00;0.00;;;8.90;78.90;;;;;;4803050;29;20217;-22
2023/12/20 02:50:49;;;;;;;0.00;0.00;;;8.90;78.90;;;;;;4789460;29;20251;-22
2023/12/20 02:53:17;;;;;;;0.00;0.00;;;8.90;79.00;;;;;;4787548;29;20316;-22
2023/12/20 02:55:44;;;;;;;0.00;0.00;;;8.90;78.90;;;;;;4801472;29;20205;-22
2023/12/20 02:58:13;;;;;;;0.00;0.00;;;8.90;79.10;;;;;;4785952;29;20588;-22
2023/12/20 03:00:43;;;;;;;0.00;0.00;;;8.90;79.10;;;;;;4797298;29;20255;-22
2023/12/20 03:03:15;;;;;;;0.00;0.00;;;8.90;79.00;;;;;;4786387;29;20254;-21
2023/12/20 03:05:46;;;;;;;0.00;0.00;;;9.00;79.10;;;;;;4801794;29;20232;-22
2023/12/20 03:08:13;;;;;;;0.00;0.00;;;9.00;79.10;;;;;;4784954;29;20304;-21
2023/12/20 03:10:43;;;;;;;0.00;0.00;;;9.00;79.00;;;;;;4784842;29;20209;-21
2023/12/20 03:13:13;;;;;;;0.00;0.00;;;9.00;79.00;;;;;;4789193;29;20237;-21
2023/12/20 03:15:42;;;;;;;0.00;0.00;;;9.00;79.00;;;;;;4792716;29;20269;-22
2023/12/20 03:18:12;;;;;;;0.00;0.00;;;9.00;79.00;;;;;;4801494;29;20974;-22
2023/12/20 03:20:41;;;;;;;0.00;0.00;;;9.00;79.00;;;;;;4800836;29;20304;-22
2023/12/20 03:23:10;;;;;;;0.00;0.00;;;8.90;78.90;;;;;;4796743;29;20220;-22
2023/12/20 03:25:40;;;;;;;0.00;0.00;;;8.90;78.90;;;;;;4791495;29;20222;-22
2023/12/20 03:28:07;;;;;;;0.00;0.00;;;8.90;79.00;;;;;;4793893;29;20262;-22
2023/12/20 03:30:34;;;;;;;0.00;0.00;;;8.90;78.90;;;;;;4795380;29;20279;-22
2023/12/20 03:33:01;;;;;;;0.00;0.00;;;8.90;78.90;;;;;;4799490;29;20235;-22
2023/12/20 03:35:29;;;;;;;0.00;0.00;;;8.90;78.90;;;;;;4791259;29;20279;-22
2023/12/20 03:37:56;;;;;;;0.00;0.00;;;8.90;78.90;;;;;;4793307;29;20209;-22
2023/12/20 03:40:24;;;;;;;0.00;0.00;;;8.90;78.90;;;;;;4798781;29;20205;-22
2023/12/20 03:42:51;;;;;;;0.00;0.00;;;8.90;78.90;;;;;;4785430;29;20224;-21
2023/12/20 03:45:21;;;;;;;0.00;0.00;;;8.90;78.90;;;;;;4788435;29;20213;-22
2023/12/20 03:47:48;;;;;;;0.00;0.00;;;8.90;78.90;;;;;;4809773;29;20806;-22
2023/12/20 03:50:18;;;;;;;0.00;0.00;;;8.90;78.90;;;;;;4789006;29;21079;-22
2023/12/20 03:52:46;;;;;;;0.00;0.00;;;8.80;79.00;;;;;;4784929;29;20228;-22
2023/12/20 03:55:13;;;;;;;0.00;0.00;;;8.80;79.00;;;;;;4802062;29;20205;-22
2023/12/20 03:57:40;;;;;;;0.00;0.00;;;8.80;79.00;;;;;;4799160;29;20256;-22
2023/12/20 04:00:11;;;;;;;0.00;0.00;;;8.80;78.90;;;;;;4799784;29;20205;-22
2023/12/20 04:02:42;;;;;;;0.00;0.00;;;8.80;79.00;;;;;;4788115;29;20218;-22
2023/12/20 04:05:10;;;;;;;0.00;0.00;;;8.80;79.00;;;;;;4791222;29;20324;-22
2023/12/20 04:07:38;;;;;;;0.00;0.00;;;8.80;78.90;;;;;;4795563;29;20262;-22
2023/12/20 04:10:06;;;;;;;0.00;0.00;;;8.80;78.90;;;;;;4801580;29;20201;-22
2023/12/20 04:12:33;;;;;;;0.00;0.00;;;8.80;78.90;;;;;;4788437;29;20217;-22
2023/12/20 04:15:00;;;;;;;0.00;0.00;;;8.80;79.00;;;;;;4786313;29;20246;-22
2023/12/20 04:17:30;;;;;;;0.00;0.00;;;8.80;79.00;;;;;;4798678;29;20211;-21
2023/12/20 04:19:59;;;;;;;0.00;0.00;;;8.80;79.00;;;;;;4785445;29;20215;-28
2023/12/20 04:22:32;;;;;;;0.00;0.00;;;8.80;79.00;;;;;;4800312;29;20225;-21
2023/12/20 04:25:01;;;;;;;0.00;0.00;;;8.80;79.00;;;;;;4798214;29;20209;-22
2023/12/20 04:27:29;;;;;;;0.00;0.00;;;8.80;79.00;;;;;;4796941;29;20255;-22
2023/12/20 04:29:56;;;;;;;0.00;0.00;;;8.80;79.00;;;;;;4770080;29;20209;-22
2023/12/20 04:32:25;;;;;;;0.00;0.00;;;8.70;78.90;;;;;;4797208;29;20680;-22
2023/12/20 04:34:55;;;;;;;0.00;0.00;;;8.70;78.90;;;;;;4786379;29;20256;-22
2023/12/20 04:37:23;;;;;;;0.00;0.00;;;8.70;78.90;;;;;;4809115;29;20253;-22
2023/12/20 04:39:50;;;;;;;0.00;0.00;;;8.70;78.90;;;;;;4786290;29;20685;-22
2023/12/20 04:42:17;;;;;;;0.00;0.00;;;8.70;78.90;;;;;;4796048;29;20209;-22
2023/12/20 04:44:47;;;;;;;0.00;0.00;;;8.70;78.90;;;;;;4782640;29;20855;-22
2023/12/20 04:47:19;;;;;;;0.00;0.00;;;8.70;78.90;;;;;;4791904;29;20299;-22
2023/12/20 04:49:46;;;;;;;0.00;0.00;;;8.70;78.90;;;;;;4790439;29;20210;-22
2023/12/20 04:52:16;;;;;;;0.00;0.00;;;8.70;78.90;;;;;;4799073;29;20212;-21
2023/12/20 04:54:43;;;;;;;0.00;0.00;;;8.70;78.90;;;;;;4781186;29;20236;-21
2023/12/20 04:57:11;;;;;;;0.00;0.00;;;8.60;78.80;;;;;;4786277;29;20684;-22
2023/12/20 04:59:38;;;;;;;0.00;0.00;;;8.60;78.80;;;;;;4784427;29;20225;-22
2023/12/20 05:02:06;;;;;;;0.00;0.00;;;8.60;78.80;;;;;;4798160;29;20209;-22
2023/12/20 05:04:33;;;;;;;0.00;0.00;;;8.60;78.80;;;;;;4784380;29;20308;-22
2023/12/20 05:07:00;;;;;;;0.00;0.00;;;8.60;78.80;;;;;;4782275;29;20957;-22
2023/12/20 05:09:30;;;;;;;0.00;0.00;;;8.60;78.90;;;;;;4789532;29;20201;-22
2023/12/20 05:11:57;;;;;;;0.00;0.00;;;8.60;78.80;;;;;;4800161;29;20216;-21
2023/12/20 05:14:27;;;;;;;0.00;0.00;;;8.60;78.90;;;;;;4796325;29;20310;-22
2023/12/20 05:16:57;;;;;;;0.00;0.00;;;8.60;78.90;;;;;;4800807;29;20205;-21
2023/12/20 05:19:27;;;;;;;0.00;0.00;;;8.50;78.90;;;;;;4789227;29;20572;-22
2023/12/20 05:22:01;;;;;;;0.00;0.00;;;8.50;78.90;;;;;;4791275;29;20295;-22
2023/12/20 05:24:31;;;;;;;0.00;0.00;;;8.50;78.80;;;;;;4796308;29;20868;-22
2023/12/20 05:26:59;;;;;;;0.00;0.00;;;8.50;79.70;;;;;;4787995;29;20217;-21
2023/12/20 05:29:26;;;;;;;0.00;0.00;;;8.50;78.90;;;;;;4786661;29;20329;-22
2023/12/20 05:31:54;;;;;;;0.00;0.00;;;8.50;79.00;;;;;;4785858;29;20309;-21
2023/12/20 05:34:25;;;;;;;0.00;0.00;;;8.50;78.90;;;;;;4782965;29;20259;-21
2023/12/20 05:37:01;;;;;;;0.00;0.00;;;8.50;79.00;;;;;;4809336;29;20830;-22
2023/12/20 05:39:30;;;;;;;0.00;0.00;;;8.40;78.90;;;;;;4781624;29;20225;-21
2023/12/20 05:41:58;;;;;;;0.00;0.00;;;8.40;78.90;;;;;;4789696;29;20309;-21
2023/12/20 05:44:27;;;;;;;0.00;0.00;;;8.40;78.90;;;;;;4783509;29;20216;-22
2023/12/20 05:46:55;;;;;;;0.00;0.00;;;8.40;78.90;;;;;;4798153;29;20222;-22
2023/12/20 05:49:26;;;;;;;0.00;0.00;;;8.40;78.90;;;;;;4783479;29;20244;-22
2023/12/20 05:51:54;;;;;;;0.00;0.00;;;8.40;78.90;;;;;;4795777;29;20677;-22
2023/12/20 05:54:21;;;;;;;0.00;0.00;;;8.40;79.00;;;;;;4783899;29;20236;-22
2023/12/20 05:56:49;;;;;;;0.00;0.00;;;8.40;79.00;;;;;;4784921;30;20210;-22
2023/12/20 05:59:16;;;;;;;0.00;0.00;;;8.40;78.90;;;;;;4792194;29;20763;-22
2023/12/20 06:01:43;;;;;;;0.00;0.00;;;8.40;79.00;;;;;;4792649;29;20212;-21
2023/12/20 06:04:11;;;;;;;0.00;0.00;;;8.40;79.00;;;;;;4799018;29;20209;-37
2023/12/20 06:06:44;;;;;;;0.00;0.00;;;8.40;79.00;;;;;;4801619;29;20232;-36
2023/12/20 06:09:15;;;;;;;0.00;0.00;;;8.40;79.00;;;;;;4802710;29;20232;-37
2023/12/20 06:11:42;;;;;;;0.00;0.00;;;8.40;79.00;;;;;;4792407;29;20209;-34
2023/12/20 06:14:12;;;;;;;0.00;0.00;;;8.30;78.90;;;;;;4795842;29;20239;-37
2023/12/20 06:16:40;;;;;;;0.00;0.00;;;8.40;79.00;;;;;;4796974;29;20964;-34
2023/12/20 06:19:07;;;;;;;0.00;0.00;;;8.30;79.00;;;;;;4803552;29;20207;-37
2023/12/20 06:21:34;;;;;;;0.00;0.00;;;8.30;79.00;;;;;;4802991;29;20224;-38
2023/12/20 06:24:06;;;;;;;0.00;0.00;;;8.30;79.00;;;;;;4807153;29;20220;-39
2023/12/20 06:26:34;;;;;;;0.00;0.00;;;8.30;79.00;;;;;;4802550;29;20216;-35
2023/12/20 06:29:01;;;;;;;0.00;0.00;;;8.30;79.10;;;;;;4800971;29;20202;-36
2023/12/20 06:31:32;;;;;;;0.00;0.00;;;8.30;79.00;;;;;;4800713;29;20818;-35
2023/12/20 06:34:04;;;;;;;0.00;0.00;;;8.30;79.10;;;;;;4802094;29;20241;-35
2023/12/20 06:36:34;;;;;;;0.00;0.00;;;8.30;79.00;;;;;;4799097;29;20267;-34
2023/12/20 06:39:04;;;;;;;0.00;0.00;;;8.30;79.00;;;;;;4801215;29;20239;-37
2023/12/20 06:41:38;;;;;;;0.00;0.00;;;8.30;79.10;;;;;;4799553;29;20214;-37
2023/12/20 06:44:08;;;;;;;0.00;0.00;;;8.30;79.10;;;;;;4784359;29;20301;-32
2023/12/20 06:46:37;;;;;;;0.00;0.00;;;8.30;79.10;;;;;;4794673;29;20209;-35
2023/12/20 06:49:07;;;;;;;0.00;0.00;;;8.40;79.00;;;;;;4794828;29;20221;-39
2023/12/20 06:51:34;;;;;;;0.00;0.00;;;8.30;79.00;;;;;;4799781;29;20221;-37
2023/12/20 06:54:09;;;;;;;0.00;0.00;;;8.30;78.90;;;;;;4795101;29;20601;-35
2023/12/20 06:56:36;;;;;;;0.00;0.00;;;8.30;79.00;;;;;;4784108;29;20710;-37
2023/12/20 06:59:03;;;;;;;0.00;0.00;;;8.30;78.90;;;;;;4802165;29;20221;-35
2023/12/20 07:01:33;;;;;;;0.00;0.00;;;8.30;78.90;;;;;;4781182;30;20217;-38
2023/12/20 07:04:00;;;;;;;0.00;0.00;;;8.30;79.00;;;;;;4786728;29;20599;-37
2023/12/20 07:06:32;;;;;;;0.00;0.00;;;8.30;78.90;;;;;;4797571;29;20244;-40
2023/12/20 07:09:02;;;;;;;0.00;0.00;;;8.30;79.00;;;;;;4798550;29;20256;-38
2023/12/20 07:11:29;;;;;;;0.00;0.00;;;8.30;79.10;;;;;;4799716;29;20217;-40
2023/12/20 07:13:58;;;;;;;0.00;0.00;;;8.30;79.00;;;;;;4794076;29;20983;-36
2023/12/20 07:16:28;;;;;;;0.00;0.00;;;8.30;79.10;;;;;;4791200;29;20216;-37
2023/12/20 07:18:58;;;;;;;0.00;0.00;;;8.30;79.00;;;;;;4787832;29;20300;-38
2023/12/20 07:21:30;;;;;;;0.00;0.00;;;8.30;79.10;;;;;;4794544;29;20692;-40
2023/12/20 07:23:57;;;;;;;0.00;0.00;;;8.30;78.90;;;;;;4797791;29;20788;-37
2023/12/20 07:26:27;;;;;;;0.00;0.00;;;8.30;78.90;;;;;;4799119;29;20217;-38
2023/12/20 07:28:59;;;;;;;0.00;0.00;;;8.20;78.80;;;;;;4797813;29;20213;-38
2023/12/20 07:31:32;;;;;;;0.00;0.00;;;8.20;78.90;;;;;;4797236;29;20220;-35
2023/12/20 07:33:59;;;;;;;0.00;0.00;;;8.20;78.90;;;;;;4794706;29;20240;-35
2023/12/20 07:36:29;;;;;;;0.00;0.00;;;8.20;79.00;;;;;;4801387;29;20252;-34
2023/12/20 07:38:56;;;;;;;0.00;0.00;;;8.20;79.00;;;;;;4791047;29;20228;-37
2023/12/20 07:41:23;;;;;;;0.00;0.00;;;8.20;78.90;;;;;;4792444;29;20594;-38
2023/12/20 07:43:53;;;;;;;0.00;0.00;;;8.20;78.80;;;;;;4789327;29;20205;-37
2023/12/20 07:46:25;;;;;;;0.00;0.00;;;8.20;78.80;;;;;;4798059;29;20732;-37
2023/12/20 07:48:55;;;;;;;0.00;0.00;;;8.10;78.80;;;;;;4787948;29;20658;-37
2023/12/20 07:51:27;;;;;;;0.00;0.00;;;8.10;78.80;;;;;;4812641;29;20211;-38
2023/12/20 07:53:54;;;;;;;0.00;0.00;;;8.10;78.90;;;;;;4800760;29;20246;-37
2023/12/20 07:56:26;;;;;;;0.00;0.00;;;8.10;78.90;;;;;;4800791;29;20209;-37
2023/12/20 07:58:53;;;;;;;0.00;0.00;;;8.10;78.90;;;;;;4781727;29;20680;-38
2023/12/20 08:01:23;;;;;;;0.00;0.00;;;8.10;78.80;;;;;;4790610;29;20851;-38
2023/12/20 08:03:53;;;;;;;0.00;0.00;;;8.10;78.90;;;;;;4791030;29;20229;-38
2023/12/20 08:06:21;;;;;;;0.00;0.00;;;8.10;78.90;;;;;;4794188;29;20233;-38
2023/12/20 08:08:48;;;;;;;0.00;0.00;;;8.00;79.00;;;;;;4793680;29;20907;-35
2023/12/20 08:11:31;;;;;;;0.00;0.00;;;8.00;78.90;;;;;;4800778;29;20215;-35
2023/12/20 08:14:01;;;;;;;0.00;0.00;;;8.00;78.90;;;;;;4797311;29;20217;-32
2023/12/20 08:16:32;;;;;;;0.00;0.00;;;8.00;78.90;;;;;;4800581;29;20668;-34
2023/12/20 08:19:02;;;;;;;0.00;0.00;;;8.00;79.00;;;;;;4800699;29;20213;-35
2023/12/20 08:21:29;;;;;;;0.00;0.00;;;8.00;79.00;;;;;;4799008;29;20244;-38
2023/12/20 08:24:03;;;;;;;0.00;0.00;;;8.00;79.00;;;;;;4791172;29;20210;-37
2023/12/20 08:26:33;;;;;;;0.00;0.00;;;8.00;79.00;;;;;;4767532;30;20205;-35
2023/12/20 08:29:00;;;;;;;0.00;0.00;;;8.10;79.10;;;;;;4785353;29;20253;-36
2023/12/20 08:31:28;;;;;;;0.00;0.00;;;8.10;79.00;;;;;;4785218;29;20881;-33
2023/12/20 08:34:01;;;;;;;0.00;0.00;;;8.00;79.00;;;;;;4793667;29;20218;-33
2023/12/20 08:36:32;;;;;;;0.00;0.00;;;8.00;79.00;;;;;;4796097;29;20247;-33
2023/12/20 08:39:03;;;;;;;0.00;0.00;;;8.00;79.00;;;;;;4794412;29;20267;-33
2023/12/20 08:41:35;;;;;;;0.00;0.00;;;8.10;79.10;;;;;;4787325;29;20227;-36
2023/12/20 08:44:03;;;;;;;0.00;0.00;;;8.10;79.20;;;;;;4798350;29;20568;-36
2023/12/20 08:46:30;;;;;;;0.00;0.00;;;8.10;79.10;;;;;;4795039;29;20222;-35
2023/12/20 08:49:00;;;;;;;0.00;0.00;;;8.10;79.20;;;;;;4790041;29;20696;-34
2023/12/20 08:51:30;;;;;;;0.00;0.00;;;8.10;79.20;;;;;;4791124;29;20210;-35
2023/12/20 08:54:02;;;;;;;0.00;0.00;;;8.10;79.20;;;;;;4788402;29;20691;-32
2023/12/20 08:56:31;;;;;;;0.00;0.00;;;8.10;79.20;;;;;;4790747;29;20224;-37
2023/12/20 08:58:59;;;;;;;0.00;0.00;;;8.20;79.30;;;;;;4790947;29;20336;-35
2023/12/20 09:01:30;;;;;;;0.00;0.00;;;8.20;79.30;;;;;;4797865;29;20208;-34
2023/12/20 09:04:00;;;;;;;0.00;0.00;;;8.20;79.30;;;;;;4797106;29;20232;-32
2023/12/20 09:06:27;;;;;;;0.00;0.00;;;8.20;79.20;;;;;;4796478;29;20232;-33
2023/12/20 09:08:55;;;;;;;0.00;0.00;;;8.30;79.30;;;;;;4811505;29;20343;-38
2023/12/20 09:11:22;;;;;;;0.00;0.00;;;8.30;79.20;;;;;;4811927;29;20208;-34
2023/12/20 09:13:49;;;;;;;0.00;0.00;;;8.30;79.20;;;;;;4790299;29;20237;-36
2023/12/20 09:16:17;;;;;;;0.00;0.00;;;8.30;79.20;;;;;;4798516;29;20294;-36
2023/12/20 09:18:53;;;;;;;0.00;0.00;;;8.30;79.20;;;;;;4789792;29;20251;-38
2023/12/20 09:21:23;;;;;;;0.00;0.00;;;8.30;79.40;;;;;;4780589;29;20212;-37
2023/12/20 09:23:50;;;;;;;0.00;0.00;;;8.30;79.20;;;;;;4782678;29;20226;-36
2023/12/20 09:26:20;;;;;;;0.00;0.00;;;8.30;79.30;;;;;;4783414;29;20282;-39
2023/12/20 09:28:50;;;;;;;0.00;0.00;;;8.40;79.40;;;;;;4797514;29;20217;-34
2023/12/20 09:31:17;;;;;;;0.00;0.00;;;8.40;79.40;;;;;;4786310;29;20239;-40
2023/12/20 09:33:45;;;;;;;0.00;0.00;;;8.40;79.30;;;;;;4801343;29;20308;-33
2023/12/20 09:36:12;;;;;;;0.00;0.00;;;8.40;79.30;;;;;;4803892;29;20242;-33
2023/12/20 09:38:44;;;;;;;0.00;0.00;;;8.40;79.20;;;;;;4801584;29;20209;-37
2023/12/20 09:41:16;;;;;;;0.00;0.00;;;8.40;79.30;;;;;;4801100;29;20694;-37
2023/12/20 09:43:43;;;;;;;0.00;0.00;;;8.40;79.30;;;;;;4796681;29;20209;-35
2023/12/20 09:46:14;;;;;;;0.00;0.00;;;8.40;79.30;;;;;;4801346;29;20644;-36
2023/12/20 09:48:45;;;;;;;0.00;0.00;;;8.40;79.30;;;;;;4801175;29;20221;-37
2023/12/20 09:51:14;;;;;;;0.00;0.00;;;8.50;79.40;;;;;;4794508;29;20754;-40
2023/12/20 09:53:48;;;;;;;0.00;0.00;;;8.50;79.40;;;;;;4787703;29;20205;-39
2023/12/20 09:56:18;;;;;;;0.00;0.00;;;8.50;79.50;;;;;;4803057;29;20243;-37
2023/12/20 09:58:46;;;;;;;0.00;0.00;;;8.50;79.40;;;;;;4795590;29;20281;-38
2023/12/20 10:01:15;;;;;;;0.00;0.00;;;8.60;79.50;;;;;;4793293;29;20586;-38
2023/12/20 10:03:46;;;;;;;0.00;0.00;;;8.60;79.40;;;;;;4785569;29;20213;-38
2023/12/20 10:06:15;;;;;;;0.00;0.00;;;8.60;79.40;;;;;;4801729;29;20581;-36
2023/12/20 10:08:45;;;;;;;0.00;0.00;;;8.60;79.30;;;;;;4803422;29;20680;-38
2023/12/20 10:11:15;;;;;;;0.00;0.00;;;8.60;79.30;;;;;;4786800;29;21054;-39
2023/12/20 10:13:48;;;;;;;0.00;0.00;;;8.60;79.30;;;;;;4792482;29;20324;-39
2023/12/20 10:16:18;;;;;;;0.00;0.00;;;8.60;79.40;;;;;;4800559;29;20347;-37
2023/12/20 10:18:45;;;;;;;0.00;0.00;;;8.70;79.50;;;;;;4796140;29;20213;-37
2023/12/20 10:21:17;;;;;;;0.00;0.00;;;8.70;79.60;;;;;;4801333;29;20295;-39
2023/12/20 10:23:45;;;;;;;0.00;0.00;;;8.70;79.50;;;;;;4803067;29;20248;-37
2023/12/20 10:26:26;;;;;;;0.00;0.00;;;8.70;79.50;;;;;;4797808;29;20621;-39
2023/12/20 10:29:04;;;;;;;0.00;0.00;;;8.80;79.60;;;;;;4786067;29;20936;-34
2023/12/20 10:31:33;;;;;;;0.00;0.00;;;8.80;79.50;;;;;;4797904;29;20208;-36
2023/12/20 10:34:04;;;;;;;0.00;0.00;;;8.80;79.60;;;;;;4793494;29;20228;-38
2023/12/20 10:36:36;;;;;;;0.00;0.00;;;8.80;79.60;;;;;;4801071;29;20251;-38
2023/12/20 10:39:08;;;;;;;0.00;0.00;;;8.80;79.50;;;;;;4799144;29;20282;-38
2023/12/20 10:41:41;;;;;;;0.00;0.00;;;8.90;79.70;;;;;;4796387;29;20232;-36
2023/12/20 10:44:12;;;;;;;0.00;0.00;;;8.90;79.70;;;;;;4799851;29;20224;-35
2023/12/20 10:46:40;;;;;;;0.00;0.00;;;8.90;79.80;;;;;;4798390;29;20249;-38
2023/12/20 10:49:12;;;;;;;0.00;0.00;;;8.90;79.70;;;;;;4802364;29;20217;-35
2023/12/20 10:51:46;;;;;;;0.00;0.00;;;9.00;79.80;;;;;;4798425;29;20232;-36
2023/12/20 10:54:13;;;;;;;0.00;0.00;;;9.00;79.80;;;;;;4796481;29;20816;-38
2023/12/20 10:56:41;;;;;;;0.00;0.00;;;9.00;79.80;;;;;;4791598;29;20233;-36
2023/12/20 10:59:14;;;;;;;0.00;0.00;;;9.00;79.60;;;;;;4800705;29;20236;-35
2023/12/20 11:01:43;;;;;;;0.00;0.00;;;9.00;79.70;;;;;;4801225;29;20309;-39
2023/12/20 11:04:19;;;;;;;0.00;0.00;;;9.10;79.80;;;;;;4782402;29;20221;-38
2023/12/20 11:06:56;;;;;;;0.00;0.00;;;9.10;79.70;;;;;;4793199;29;20220;-36
2023/12/20 11:09:36;;;;;;;0.00;0.00;;;9.10;79.90;;;;;;4791343;29;20649;-39
2023/12/20 11:12:22;;;;;;;0.00;0.00;;;9.10;79.80;;;;;;4786013;29;20643;-36
2023/12/20 11:14:52;;;;;;;0.00;0.00;;;9.20;80.00;;;;;;4787225;29;20213;-37
2023/12/20 11:17:20;;;;;;;0.00;0.00;;;9.20;80.00;;;;;;4784068;29;20210;-38
2023/12/20 11:19:52;;;;;;;0.00;0.00;;;9.20;79.90;;;;;;4786593;29;20229;-41
2023/12/20 11:22:51;;;;;;;0.00;0.00;;;9.30;79.90;;;;;;4789895;29;20265;-39
2023/12/20 11:25:21;;;;;;;0.00;0.00;;;9.30;79.80;;;;;;4796462;29;20300;-39
2023/12/20 11:28:10;;;;;;;0.00;0.00;;;9.30;80.20;;;;;;4794556;29;20608;-41
2023/12/20 11:31:01;;;;;;;0.00;0.00;;;9.30;80.00;;;;;;4797220;29;20209;-34
2023/12/20 11:33:37;;;;;;;0.00;0.00;;;9.40;80.90;;;;;;4796877;29;20218;-37
2023/12/20 11:36:18;;;;;;;0.00;0.00;;;9.40;80.00;;;;;;4788529;29;20241;-40
2023/12/20 11:38:57;;;;;;;0.00;0.00;;;9.40;80.20;;;;;;4799291;29;20225;-39
2023/12/20 11:41:25;;;;;;;0.00;0.00;;;9.50;80.20;;;;;;4820861;29;20304;-39
2023/12/20 11:43:56;;;;;;;0.00;0.00;;;9.50;80.20;;;;;;4793728;29;20209;-41
2023/12/20 11:46:23;;;;;;;0.00;0.00;;;9.50;80.10;;;;;;4795737;29;20227;-43
2023/12/20 11:48:51;;;;;;;0.00;0.00;;;9.50;80.10;;;;;;4799505;29;20728;-41
2023/12/20 11:51:21;;;;;;;0.00;0.00;;;9.60;80.20;;;;;;4797898;29;20294;-39
2023/12/20 11:53:56;;;;;;;0.00;0.00;;;9.60;80.20;;;;;;4782384;29;20408;-42
2023/12/20 11:56:26;;;;;;;0.00;0.00;;;9.70;80.30;;;;;;4801735;29;20243;-39
2023/12/20 11:58:53;;;;;;;0.00;0.00;;;9.70;80.30;;;;;;4798132;29;20205;-40
2023/12/20 12:01:29;;;;;;;0.00;0.00;;;9.70;80.30;;;;;;4794282;29;20691;-39
2023/12/20 12:04:06;;;;;;;0.00;0.00;;;9.80;80.30;;;;;;4795776;29;20226;-42
2023/12/20 12:06:33;;;;;;;0.00;0.00;;;9.80;80.30;;;;;;4784130;29;20217;-39
2023/12/20 12:09:04;;;;;;;0.00;0.00;;;9.80;80.30;;;;;;4795373;29;20242;-41
2023/12/20 12:11:31;;;;;;;0.00;0.00;;;9.80;80.20;;;;;;4801637;29;20216;-36
2023/12/20 12:13:59;;;;;;;0.00;0.00;;;9.90;80.20;;;;;;4796900;29;20826;-41
2023/12/20 12:16:29;;;;;;;0.00;0.00;;;9.90;80.20;;;;;;4781025;29;20788;-43
2023/12/20 12:19:00;;;;;;;0.00;0.00;;;10.00;80.30;;;;;;4799651;29;20302;-41
2023/12/20 12:21:30;;;;;;;0.00;0.00;;;10.00;80.20;;;;;;4780603;29;20563;-37
2023/12/20 12:24:09;;;;;;;0.00;0.00;;;10.00;80.30;;;;;;4783734;29;20274;-38
2023/12/20 12:26:37;;;;;;;0.00;0.00;;;10.00;80.30;;;;;;4797067;29;20328;-33
2023/12/20 12:29:07;;;;;;;0.00;0.00;;;10.00;80.20;;;;;;4785307;29;20210;-39
2023/12/20 12:31:37;;;;;;;0.00;0.00;;;10.00;80.30;;;;;;4788527;29;20260;-37
2023/12/20 12:34:09;;;;;;;0.00;0.00;;;10.00;80.20;;;;;;4779645;29;20216;-40
2023/12/20 12:36:38;;;;;;;0.00;0.00;;;10.10;80.30;;;;;;4780141;29;20253;-42
2023/12/20 12:39:08;;;;;;;0.00;0.00;;;10.10;80.30;;;;;;4786763;29;20209;-40
2023/12/20 12:41:37;;;;;;;0.00;0.00;;;10.10;80.20;;;;;;4806539;29;20212;-36
2023/12/20 12:44:07;;;;;;;0.00;0.00;;;10.10;80.10;;;;;;4795168;29;20289;-37
2023/12/20 12:46:50;;;;;;;0.00;0.00;;;10.10;80.10;;;;;;4796423;29;20208;-35
2023/12/20 12:49:21;;;;;;;0.00;0.00;;;10.10;80.20;;;;;;4798214;29;20231;-37
2023/12/20 12:51:51;;;;;;;0.00;0.00;;;10.10;80.20;;;;;;4796356;29;20225;-40
2023/12/20 12:54:18;;;;;;;0.00;0.00;;;10.10;80.20;;;;;;4793297;29;20213;-37
2023/12/20 12:56:47;;;;;;;0.00;0.00;;;10.20;80.30;;;;;;4780698;29;20256;-39
2023/12/20 12:59:14;;;;;;;0.00;0.00;;;10.20;80.40;;;;;;4793304;29;20300;-40
2023/12/20 13:01:42;;;;;;;0.00;0.00;;;10.20;80.40;;;;;;4782879;29;20228;-40
2023/12/20 13:04:10;;;;;;;0.00;0.00;;;10.20;80.40;;;;;;4798772;29;20209;-40
2023/12/20 13:06:43;;;;;;;0.00;0.00;;;10.20;80.40;;;;;;4804633;29;20277;-37
2023/12/20 13:09:16;;;;;;;0.00;0.00;;;10.20;80.30;;;;;;4806804;29;20747;-38